Time;durP1;ratioP1;P1;durP2;ratioP2;P2;SDS_P1;SDS_P2;PMS_P1;PMS_P2;Temp;Humidity;BMP_temperature;BMP_pressure;BME280_temperature;BME280_humidity;BME280_pressure;Samples;Min_cycle;Max_cycle;Signal;HPM_P1;HPM_P2
2022/03/08 00:00:29;;;;;;;10.90;7.37;;;0.60;99.90;;;;;;5075135;28;20408;-47
2022/03/08 00:02:55;;;;;;;10.83;6.47;;;0.50;99.90;;;;;;5075262;28;20201;-47
2022/03/08 00:05:22;;;;;;;13.83;7.00;;;0.50;99.90;;;;;;5075012;28;20772;-44
2022/03/08 00:07:48;;;;;;;13.67;7.70;;;0.50;99.90;;;;;;5056627;28;20205;-44
2022/03/08 00:10:14;;;;;;;10.77;7.53;;;0.50;99.90;;;;;;5074612;28;20403;-44
2022/03/08 00:12:40;;;;;;;13.53;7.27;;;0.50;99.90;;;;;;5056757;28;20763;-43
2022/03/08 00:15:11;;;;;;;11.47;7.57;;;0.50;99.90;;;;;;5056598;28;20503;-42
2022/03/08 00:17:37;;;;;;;10.97;6.90;;;0.50;99.90;;;;;;5074616;28;20204;-44
2022/03/08 00:20:06;;;;;;;9.90;6.80;;;0.50;99.90;;;;;;5074421;28;20410;-43
2022/03/08 00:22:33;;;;;;;10.60;7.33;;;0.50;99.90;;;;;;5074232;28;20450;-44
2022/03/08 00:25:01;;;;;;;9.00;6.83;;;0.40;99.90;;;;;;5074559;28;20408;-44
2022/03/08 00:27:27;;;;;;;11.73;7.50;;;0.40;99.90;;;;;;5074154;28;20963;-44
2022/03/08 00:29:53;;;;;;;12.00;7.13;;;0.40;99.90;;;;;;5074534;28;20489;-43
2022/03/08 00:32:19;;;;;;;12.70;7.87;;;0.30;99.90;;;;;;5074336;28;20470;-44
2022/03/08 00:34:45;;;;;;;13.10;7.63;;;0.30;99.90;;;;;;5074610;28;20202;-44
2022/03/08 00:37:10;;;;;;;12.37;7.70;;;0.30;99.90;;;;;;5074412;28;20220;-44
2022/03/08 00:39:36;;;;;;;11.37;7.47;;;0.30;99.90;;;;;;5074117;28;20217;-45
2022/03/08 00:42:02;;;;;;;9.77;6.60;;;0.20;99.90;;;;;;5074294;28;20236;-43
2022/03/08 00:44:28;;;;;;;11.10;6.90;;;0.30;99.90;;;;;;5074226;28;20180;-44
2022/03/08 00:46:54;;;;;;;11.57;7.13;;;0.30;99.90;;;;;;5074081;28;20447;-43
2022/03/08 00:49:19;;;;;;;9.63;6.70;;;0.30;99.90;;;;;;5073795;28;20256;-44
2022/03/08 00:51:45;;;;;;;8.83;6.20;;;0.20;99.90;;;;;;5056102;28;20173;-45
2022/03/08 00:54:11;;;;;;;11.57;7.60;;;0.20;99.90;;;;;;5074090;28;20573;-44
2022/03/08 00:56:37;;;;;;;9.63;7.07;;;0.20;99.90;;;;;;5073737;28;20233;-43
2022/03/08 00:59:02;;;;;;;11.03;7.20;;;0.20;99.90;;;;;;5073719;28;20178;-44
2022/03/08 01:01:28;;;;;;;10.70;7.27;;;0.10;99.90;;;;;;5074078;28;20215;-44
2022/03/08 01:03:53;;;;;;;11.33;6.90;;;0.10;99.90;;;;;;5073597;28;20174;-44
2022/03/08 01:06:19;;;;;;;10.00;7.30;;;0.10;99.90;;;;;;5074962;28;20173;-45
2022/03/08 01:08:45;;;;;;;10.80;6.33;;;0.10;99.90;;;;;;5056371;28;20203;-45
2022/03/08 01:11:11;;;;;;;11.70;7.83;;;0.20;99.90;;;;;;5073768;28;20175;-43
2022/03/08 01:13:36;;;;;;;11.70;7.77;;;0.20;99.90;;;;;;5074071;28;20186;-43
2022/03/08 01:16:02;;;;;;;9.93;6.87;;;0.20;99.90;;;;;;5073981;28;20674;-43
2022/03/08 01:18:28;;;;;;;10.37;6.57;;;0.20;99.90;;;;;;5073763;28;20204;-44
2022/03/08 01:20:54;;;;;;;10.80;7.47;;;0.20;99.90;;;;;;5074012;28;20200;-44
2022/03/08 01:23:19;;;;;;;9.63;7.30;;;0.20;99.90;;;;;;5074235;28;20173;-44
2022/03/08 01:25:45;;;;;;;10.80;7.53;;;0.20;99.90;;;;;;5073665;28;20670;-44
2022/03/08 01:28:10;;;;;;;9.97;7.57;;;0.20;99.90;;;;;;5074019;28;20195;-44
2022/03/08 01:30:36;;;;;;;10.50;7.27;;;0.10;99.90;;;;;;5073760;28;20256;-45
2022/03/08 01:33:02;;;;;;;12.67;7.80;;;0.10;99.90;;;;;;5073461;28;20584;-43
2022/03/08 01:35:28;;;;;;;12.97;7.63;;;0.00;99.90;;;;;;5073490;28;20280;-44
2022/03/08 01:37:53;;;;;;;13.40;8.27;;;0.00;99.90;;;;;;5073568;28;20457;-43
2022/03/08 01:40:20;;;;;;;11.37;7.40;;;0.00;99.90;;;;;;5073167;28;20649;-45
2022/03/08 01:42:48;;;;;;;13.17;7.47;;;-0.10;99.90;;;;;;5073286;28;20200;-43
2022/03/08 01:45:16;;;;;;;11.93;7.93;;;-0.10;99.90;;;;;;5073385;28;20926;-42
2022/03/08 01:47:42;;;;;;;14.87;8.30;;;-0.20;99.90;;;;;;5073610;28;20436;-43
2022/03/08 01:50:09;;;;;;;14.33;8.53;;;-0.20;99.90;;;;;;5073618;28;20430;-40
2022/03/08 01:52:34;;;;;;;14.30;8.40;;;-0.30;99.90;;;;;;5073359;28;20423;-44
2022/03/08 01:55:00;;;;;;;12.53;8.80;;;-0.30;99.90;;;;;;5073371;28;20428;-44
2022/03/08 01:57:26;;;;;;;16.17;8.13;;;-0.30;99.90;;;;;;5073017;28;20234;-46
2022/03/08 01:59:52;;;;;;;12.13;8.20;;;-0.30;99.90;;;;;;5073550;28;20727;-45
2022/03/08 02:02:19;;;;;;;13.30;7.47;;;-0.40;99.90;;;;;;5075799;28;20241;-42
2022/03/08 02:04:45;;;;;;;11.87;7.77;;;-0.40;99.90;;;;;;5077056;28;20405;-44
2022/03/08 02:07:11;;;;;;;12.87;8.50;;;-0.40;99.90;;;;;;5077350;28;20425;-42
2022/03/08 02:09:37;;;;;;;13.37;8.27;;;-0.40;99.90;;;;;;5077054;28;20409;-43
2022/03/08 02:12:04;;;;;;;12.20;7.87;;;-0.50;99.90;;;;;;5077989;28;20433;-44
2022/03/08 02:14:30;;;;;;;11.93;7.67;;;-0.50;99.90;;;;;;5076876;28;20644;-44
2022/03/08 02:16:56;;;;;;;12.47;8.00;;;-0.50;99.90;;;;;;5077220;28;20433;-45
2022/03/08 02:19:21;;;;;;;13.17;7.50;;;-0.50;99.90;;;;;;5076965;28;20183;-43
2022/03/08 02:21:50;;;;;;;13.83;8.23;;;-0.50;99.90;;;;;;5076697;28;20298;-43
2022/03/08 02:24:16;;;;;;;12.40;7.63;;;-0.50;99.90;;;;;;5076757;28;20262;-45
2022/03/08 02:26:42;;;;;;;13.90;7.37;;;-0.50;99.90;;;;;;5076666;28;20774;-43
2022/03/08 02:29:08;;;;;;;12.67;7.80;;;-0.50;99.90;;;;;;5076534;28;20780;-44
2022/03/08 02:31:35;;;;;;;11.70;6.90;;;-0.50;99.90;;;;;;5076710;28;20207;-43
2022/03/08 02:34:01;;;;;;;11.17;7.80;;;-0.50;99.90;;;;;;5076896;28;20414;-44
2022/03/08 02:36:27;;;;;;;14.90;7.50;;;-0.50;99.90;;;;;;5076514;28;20438;-42
2022/03/08 02:38:52;;;;;;;10.77;6.87;;;-0.50;99.90;;;;;;5076414;28;20880;-43
2022/03/08 02:41:18;;;;;;;12.67;6.97;;;-0.50;99.90;;;;;;5076379;28;20274;-44
2022/03/08 02:43:44;;;;;;;10.73;6.93;;;-0.50;99.90;;;;;;5058360;28;20176;-44
2022/03/08 02:46:10;;;;;;;10.70;7.30;;;-0.50;99.90;;;;;;5076247;28;20207;-43
2022/03/08 02:48:36;;;;;;;11.20;7.07;;;-0.40;99.90;;;;;;5076378;28;20204;-44
2022/03/08 02:51:03;;;;;;;11.40;6.43;;;-0.40;99.90;;;;;;5058239;28;20417;-42
2022/03/08 02:53:29;;;;;;;8.97;5.63;;;-0.40;99.90;;;;;;5076358;28;20544;-44
2022/03/08 02:55:55;;;;;;;11.83;7.10;;;-0.40;99.90;;;;;;5058109;28;20795;-45
2022/03/08 02:58:20;;;;;;;9.10;5.93;;;-0.40;99.90;;;;;;5076067;28;20430;-44
2022/03/08 03:00:46;;;;;;;11.63;6.93;;;-0.40;99.90;;;;;;5058028;28;20222;-43
2022/03/08 03:03:12;;;;;;;12.60;6.57;;;-0.40;99.90;;;;;;5076222;28;20187;-44
2022/03/08 03:05:38;;;;;;;7.83;5.27;;;-0.30;99.90;;;;;;5076243;28;20176;-45
2022/03/08 03:08:05;;;;;;;11.53;6.47;;;-0.30;99.90;;;;;;5076943;28;20968;-42
2022/03/08 03:10:31;;;;;;;10.53;5.50;;;-0.30;99.90;;;;;;5076160;28;20176;-45
2022/03/08 03:12:58;;;;;;;8.23;5.47;;;-0.30;99.90;;;;;;5075085;28;20934;-45
2022/03/08 03:15:25;;;;;;;4.87;3.33;;;-0.20;99.90;;;;;;5076703;28;20465;-43
2022/03/08 03:17:52;;;;;;;7.37;5.93;;;-0.20;99.90;;;;;;5075688;28;20827;-44
2022/03/08 03:20:19;;;;;;;10.40;6.47;;;-0.10;99.90;;;;;;5057968;28;20421;-42
2022/03/08 03:22:46;;;;;;;7.60;4.97;;;-0.10;99.90;;;;;;5075879;28;20480;-43
2022/03/08 03:25:12;;;;;;;9.47;4.70;;;-0.10;99.90;;;;;;5057612;28;20475;-42
2022/03/08 03:27:39;;;;;;;6.43;4.17;;;0.00;99.90;;;;;;5075644;28;20430;-44
2022/03/08 03:30:08;;;;;;;7.53;5.47;;;0.00;99.90;;;;;;5057742;28;20818;-44
2022/03/08 03:32:34;;;;;;;9.43;5.23;;;0.00;99.90;;;;;;5075479;28;20440;-42
2022/03/08 03:35:00;;;;;;;7.97;4.90;;;0.10;99.90;;;;;;5075761;28;20414;-42
2022/03/08 03:37:27;;;;;;;4.47;3.37;;;0.10;99.90;;;;;;5075903;28;20765;-43
2022/03/08 03:39:53;;;;;;;8.37;4.90;;;0.10;99.90;;;;;;5075624;28;20172;-45
2022/03/08 03:42:19;;;;;;;8.47;5.33;;;0.10;99.90;;;;;;5075715;28;20815;-42
2022/03/08 03:44:45;;;;;;;9.07;5.73;;;0.10;99.90;;;;;;5076392;28;20168;-42
2022/03/08 03:47:10;;;;;;;9.40;5.40;;;0.10;99.90;;;;;;5075236;28;20432;-44
2022/03/08 03:49:36;;;;;;;11.63;6.63;;;0.10;99.90;;;;;;5075249;28;20261;-44
2022/03/08 03:52:03;;;;;;;10.43;6.80;;;0.10;99.90;;;;;;5075741;28;20202;-43
2022/03/08 03:54:28;;;;;;;8.80;6.23;;;0.10;99.90;;;;;;5075188;28;20179;-43
2022/03/08 03:56:54;;;;;;;8.77;5.93;;;0.00;99.90;;;;;;5057855;28;20441;-43
2022/03/08 03:59:23;;;;;;;8.43;6.40;;;0.00;99.90;;;;;;5075342;28;20716;-44
2022/03/08 04:01:48;;;;;;;6.23;4.43;;;-0.10;99.90;;;;;;5075604;28;20238;-44
2022/03/08 04:04:14;;;;;;;9.10;6.13;;;-0.20;99.90;;;;;;5075129;28;20441;-44
2022/03/08 04:06:40;;;;;;;10.00;5.93;;;-0.20;99.90;;;;;;5074608;28;20175;-43
2022/03/08 04:09:05;;;;;;;8.70;5.73;;;-0.20;99.90;;;;;;5074670;28;20225;-44
2022/03/08 04:11:31;;;;;;;9.37;5.80;;;-0.20;99.90;;;;;;5074850;28;20263;-43
2022/03/08 04:13:58;;;;;;;7.60;5.40;;;-0.30;99.90;;;;;;5074871;28;20258;-43
2022/03/08 04:16:24;;;;;;;9.43;6.03;;;-0.30;99.90;;;;;;5074617;28;20180;-43
2022/03/08 04:18:49;;;;;;;7.57;5.33;;;-0.30;99.90;;;;;;5056683;28;20453;-44
2022/03/08 04:21:15;;;;;;;8.23;5.47;;;-0.30;99.90;;;;;;5074461;28;20203;-43
2022/03/08 04:23:40;;;;;;;11.43;6.57;;;-0.20;99.90;;;;;;5074775;28;20188;-43
2022/03/08 04:26:06;;;;;;;8.70;5.97;;;-0.20;99.90;;;;;;5074169;28;20199;-45
2022/03/08 04:28:32;;;;;;;14.13;6.13;;;-0.20;99.90;;;;;;5074193;28;20247;-45
2022/03/08 04:30:57;;;;;;;9.70;6.40;;;-0.20;99.90;;;;;;5074173;28;20210;-44
2022/03/08 04:33:23;;;;;;;8.87;5.23;;;-0.30;99.90;;;;;;5074209;28;20159;-43
2022/03/08 04:35:49;;;;;;;9.20;5.77;;;-0.30;99.90;;;;;;5074446;28;20199;-44
2022/03/08 04:38:14;;;;;;;9.57;6.30;;;-0.30;99.90;;;;;;5074034;28;20199;-44
2022/03/08 04:40:40;;;;;;;10.17;6.63;;;-0.30;99.90;;;;;;5074005;28;20182;-44
2022/03/08 04:43:06;;;;;;;10.17;6.50;;;-0.30;99.90;;;;;;5074084;28;20293;-42
2022/03/08 04:45:31;;;;;;;11.23;6.27;;;-0.30;99.90;;;;;;5074183;28;20180;-44
2022/03/08 04:47:57;;;;;;;10.07;6.43;;;-0.40;99.90;;;;;;5074617;28;20235;-43
2022/03/08 04:50:23;;;;;;;7.73;5.23;;;-0.40;99.90;;;;;;5074525;28;20167;-43
2022/03/08 04:52:49;;;;;;;9.37;5.87;;;-0.40;99.90;;;;;;5074136;28;20179;-43
2022/03/08 04:55:17;;;;;;;10.70;6.33;;;-0.30;99.90;;;;;;5073980;28;20176;-44
2022/03/08 04:57:43;;;;;;;11.00;6.53;;;-0.30;99.90;;;;;;5074717;28;20486;-44
2022/03/08 05:00:12;;;;;;;6.77;4.37;;;-0.30;99.90;;;;;;5073885;28;20812;-43
2022/03/08 05:02:43;;;;;;;8.27;5.10;;;-0.30;99.90;;;;;;5074499;28;20273;-44
2022/03/08 05:05:11;;;;;;;9.30;5.83;;;-0.20;99.90;;;;;;5056504;28;20902;-46
2022/03/08 05:07:37;;;;;;;10.43;5.90;;;-0.20;99.90;;;;;;5074678;28;20434;-44
2022/03/08 05:10:09;;;;;;;8.13;6.10;;;-0.20;99.90;;;;;;5073912;28;20501;-44
2022/03/08 05:12:36;;;;;;;12.47;6.70;;;-0.20;99.90;;;;;;5056821;28;20834;-44
2022/03/08 05:15:03;;;;;;;9.20;5.27;;;-0.20;99.90;;;;;;5074078;28;20472;-45
2022/03/08 05:17:29;;;;;;;9.33;5.63;;;-0.20;99.90;;;;;;5073333;28;20441;-44
2022/03/08 05:19:54;;;;;;;9.67;6.20;;;-0.20;99.90;;;;;;5073515;28;20425;-43
2022/03/08 05:22:20;;;;;;;10.50;6.70;;;-0.20;99.90;;;;;;5074092;28;20633;-45
2022/03/08 05:24:45;;;;;;;10.47;6.00;;;-0.20;99.90;;;;;;5073807;28;20183;-45
2022/03/08 05:27:11;;;;;;;10.33;6.60;;;-0.20;99.90;;;;;;5073805;28;20198;-46
2022/03/08 05:29:37;;;;;;;9.63;6.23;;;-0.30;99.90;;;;;;5073505;28;20179;-44
2022/03/08 05:32:03;;;;;;;8.37;5.67;;;-0.20;99.90;;;;;;5073423;28;20231;-44
2022/03/08 05:34:29;;;;;;;12.77;7.10;;;-0.20;99.90;;;;;;5073209;28;20187;-44
2022/03/08 05:36:56;;;;;;;10.10;6.53;;;-0.20;99.90;;;;;;5092358;22;20879;-40
2022/03/08 05:39:21;;;;;;;10.80;5.63;;;-0.20;99.90;;;;;;5056000;28;20270;-42
2022/03/08 05:41:47;;;;;;;10.80;6.23;;;-0.20;99.90;;;;;;5055348;28;20937;-40
2022/03/08 05:44:13;;;;;;;10.93;6.33;;;-0.20;99.90;;;;;;5055271;28;20324;-41
2022/03/08 05:46:38;;;;;;;9.67;6.07;;;-0.20;99.90;;;;;;5073538;28;20260;-43
2022/03/08 05:49:07;;;;;;;8.57;5.90;;;-0.20;99.90;;;;;;5074091;28;20176;-41
2022/03/08 05:51:32;;;;;;;10.83;6.17;;;-0.20;99.90;;;;;;5073563;28;20261;-42
2022/03/08 05:53:58;;;;;;;10.67;6.30;;;-0.20;99.90;;;;;;5073636;28;20438;-42
2022/03/08 05:56:24;;;;;;;10.30;6.17;;;-0.20;99.90;;;;;;5073434;28;20233;-41
2022/03/08 05:58:49;;;;;;;9.23;6.27;;;-0.20;99.90;;;;;;5073259;28;20278;-41
2022/03/08 06:01:15;;;;;;;8.87;5.70;;;-0.20;99.90;;;;;;5073763;28;20191;-41
2022/03/08 06:03:41;;;;;;;12.43;6.50;;;-0.20;99.90;;;;;;5074047;28;20646;-41
2022/03/08 06:06:07;;;;;;;9.30;6.50;;;-0.30;99.90;;;;;;5056251;28;20168;-39
2022/03/08 06:08:32;;;;;;;10.30;6.33;;;-0.30;99.90;;;;;;5073324;28;20195;-42
2022/03/08 06:10:58;;;;;;;9.13;5.53;;;-0.30;99.90;;;;;;5073331;28;20176;-40
2022/03/08 06:13:23;;;;;;;10.47;6.63;;;-0.30;99.90;;;;;;5073244;28;20704;-41
2022/03/08 06:15:49;;;;;;;13.17;6.70;;;-0.30;99.90;;;;;;5073026;28;20187;-40
2022/03/08 06:18:15;;;;;;;10.17;6.83;;;-0.20;99.90;;;;;;5073104;28;20235;-41
2022/03/08 06:20:40;;;;;;;12.80;7.60;;;-0.20;99.90;;;;;;5072879;28;20175;-40
2022/03/08 06:23:06;;;;;;;8.67;6.47;;;-0.30;99.90;;;;;;5072840;28;20204;-42
2022/03/08 06:25:31;;;;;;;10.70;6.87;;;-0.20;99.90;;;;;;5072776;28;20175;-40
2022/03/08 06:27:57;;;;;;;10.13;6.43;;;-0.20;99.90;;;;;;5073021;28;20210;-40
2022/03/08 06:30:22;;;;;;;8.93;5.97;;;-0.20;99.90;;;;;;5072795;28;20183;-41
2022/03/08 06:32:48;;;;;;;14.23;7.30;;;-0.10;99.90;;;;;;5072979;28;20198;-41
2022/03/08 06:35:14;;;;;;;9.93;6.70;;;-0.10;99.90;;;;;;5054832;28;20187;-42
2022/03/08 06:37:39;;;;;;;9.77;6.27;;;-0.10;99.90;;;;;;5072457;28;20221;-43
2022/03/08 06:40:07;;;;;;;5.10;2.90;;;0.00;99.90;;;;;;5072910;28;20190;-44
2022/03/08 06:42:33;;;;;;;9.47;6.07;;;0.00;99.90;;;;;;5073158;28;20206;-43
2022/03/08 06:44:58;;;;;;;15.87;5.90;;;0.10;99.90;;;;;;5055373;28;20433;-42
2022/03/08 06:47:24;;;;;;;10.47;6.80;;;0.10;99.90;;;;;;5074797;28;20437;-40
2022/03/08 06:49:49;;;;;;;10.57;7.10;;;0.20;99.90;;;;;;5076699;28;20176;-40
2022/03/08 06:52:15;;;;;;;13.33;5.93;;;0.20;99.90;;;;;;5076198;28;20200;-40
2022/03/08 06:54:41;;;;;;;5.70;4.17;;;0.30;99.90;;;;;;5058208;28;20190;-41
2022/03/08 06:57:06;;;;;;;5.47;3.30;;;0.40;99.90;;;;;;5075993;28;20557;-41
2022/03/08 06:59:32;;;;;;;8.20;4.57;;;0.50;99.90;;;;;;5076222;28;20674;-42
2022/03/08 07:01:58;;;;;;;6.93;5.07;;;0.60;99.90;;;;;;5075924;28;20203;-42
2022/03/08 07:04:24;;;;;;;10.27;6.30;;;0.70;99.90;;;;;;5075896;28;20662;-40
2022/03/08 07:06:50;;;;;;;11.40;5.67;;;0.80;99.90;;;;;;5075827;28;20211;-41
2022/03/08 07:09:17;;;;;;;9.50;5.67;;;0.90;99.90;;;;;;5076137;28;20459;-42
2022/03/08 07:11:42;;;;;;;5.03;3.53;;;0.90;99.90;;;;;;5076571;28;20401;-40
2022/03/08 07:14:08;;;;;;;7.43;4.97;;;1.00;99.90;;;;;;5075722;28;20422;-43
2022/03/08 07:16:34;;;;;;;8.77;5.53;;;1.10;99.90;;;;;;5057712;28;20183;-41
2022/03/08 07:19:00;;;;;;;6.67;4.20;;;1.10;99.90;;;;;;5057718;28;20289;-42
2022/03/08 07:21:25;;;;;;;7.00;3.73;;;1.20;99.90;;;;;;5075546;28;20203;-43
2022/03/08 07:23:51;;;;;;;5.23;2.83;;;1.30;99.90;;;;;;5075617;28;20258;-42
2022/03/08 07:26:17;;;;;;;5.47;3.77;;;1.40;99.90;;;;;;5075722;28;20179;-40
2022/03/08 07:28:42;;;;;;;5.03;3.20;;;1.40;99.90;;;;;;5075747;28;20436;-41
2022/03/08 07:31:08;;;;;;;7.67;4.63;;;1.50;99.90;;;;;;5075606;28;20180;-42
2022/03/08 07:33:34;;;;;;;10.03;5.70;;;1.60;99.90;;;;;;5076539;28;20191;-46
2022/03/08 07:36:01;;;;;;;5.07;4.37;;;1.60;99.90;;;;;;5076502;28;20175;-42
2022/03/08 07:38:27;;;;;;;8.77;5.40;;;1.70;99.90;;;;;;5058358;28;20534;-46
2022/03/08 07:40:52;;;;;;;8.30;4.97;;;1.80;99.90;;;;;;5075313;28;20501;-39
2022/03/08 07:43:18;;;;;;;6.50;3.63;;;1.80;99.90;;;;;;5075798;28;20953;-41
2022/03/08 07:45:44;;;;;;;5.00;3.80;;;1.90;99.90;;;;;;5057335;28;20184;-40
2022/03/08 07:48:09;;;;;;;5.07;3.43;;;2.00;99.90;;;;;;5076485;28;20192;-44
2022/03/08 07:50:36;;;;;;;11.83;5.80;;;2.10;99.90;;;;;;5078012;28;20222;-45
2022/03/08 07:53:03;;;;;;;3.73;3.10;;;2.20;99.90;;;;;;5059644;28;20186;-42
2022/03/08 07:55:32;;;;;;;7.20;4.23;;;2.20;99.90;;;;;;5057025;28;20422;-42
2022/03/08 07:57:58;;;;;;;6.67;4.13;;;2.40;99.90;;;;;;5074920;28;20433;-41
2022/03/08 08:00:25;;;;;;;5.03;3.60;;;2.50;99.90;;;;;;5074100;28;21050;-43
2022/03/08 08:02:51;;;;;;;8.07;5.27;;;2.60;99.90;;;;;;5075290;28;20975;-43
2022/03/08 08:05:17;;;;;;;8.33;4.23;;;2.70;99.90;;;;;;5057103;28;20434;-38
2022/03/08 08:07:44;;;;;;;8.77;5.43;;;2.80;99.90;;;;;;5075026;28;20203;-42
2022/03/08 08:10:11;;;;;;;5.93;3.87;;;2.80;99.90;;;;;;5074884;28;20491;-40
2022/03/08 08:12:37;;;;;;;4.97;3.37;;;2.90;99.90;;;;;;5074740;28;20841;-40
2022/03/08 08:15:05;;;;;;;11.57;5.30;;;3.00;99.90;;;;;;5074733;28;20426;-39
2022/03/08 08:17:30;;;;;;;8.63;4.97;;;3.10;99.90;;;;;;5074607;28;20503;-40
2022/03/08 08:19:56;;;;;;;5.40;4.57;;;3.10;99.90;;;;;;5074830;28;20422;-41
2022/03/08 08:22:22;;;;;;;7.23;4.87;;;3.20;99.90;;;;;;5074596;28;20702;-41
2022/03/08 08:24:47;;;;;;;5.20;3.60;;;3.30;99.90;;;;;;5074871;28;20633;-40
2022/03/08 08:27:13;;;;;;;4.17;2.87;;;3.40;99.90;;;;;;5074810;28;20684;-42
2022/03/08 08:29:38;;;;;;;7.23;5.33;;;3.50;99.90;;;;;;5074295;28;20189;-41
2022/03/08 08:32:04;;;;;;;5.90;3.50;;;3.50;99.90;;;;;;5074553;28;20181;-43
2022/03/08 08:34:30;;;;;;;6.23;3.53;;;3.60;99.90;;;;;;5074301;28;20212;-40
2022/03/08 08:36:56;;;;;;;6.60;4.57;;;3.80;99.90;;;;;;5074266;28;20225;-40
2022/03/08 08:39:21;;;;;;;6.27;4.37;;;3.80;99.90;;;;;;5075165;28;20181;-41
2022/03/08 08:41:47;;;;;;;8.73;4.87;;;3.90;99.90;;;;;;5074291;28;20564;-40
2022/03/08 08:44:13;;;;;;;7.23;4.80;;;4.00;99.90;;;;;;5074046;28;20178;-41
2022/03/08 08:46:38;;;;;;;5.33;4.00;;;4.10;99.90;;;;;;5074207;28;20179;-40
2022/03/08 08:49:05;;;;;;;6.27;4.73;;;4.20;99.90;;;;;;5073935;28;20646;-41
2022/03/08 08:51:31;;;;;;;9.17;5.80;;;4.30;99.90;;;;;;5074156;28;20178;-39
2022/03/08 08:53:57;;;;;;;4.67;3.43;;;4.40;99.90;;;;;;5074437;28;20269;-41
2022/03/08 08:56:24;;;;;;;3.80;3.40;;;4.40;99.90;;;;;;5073907;28;20207;-40
2022/03/08 08:58:49;;;;;;;6.80;4.30;;;4.50;99.90;;;;;;5073995;28;20227;-41
2022/03/08 09:01:15;;;;;;;6.17;4.00;;;4.60;99.90;;;;;;5074050;28;20245;-42
2022/03/08 09:03:41;;;;;;;6.60;4.10;;;4.70;99.90;;;;;;5073959;28;20643;-42
2022/03/08 09:06:07;;;;;;;5.70;4.50;;;4.80;99.90;;;;;;5073786;28;20180;-44
2022/03/08 09:08:32;;;;;;;5.60;4.30;;;4.90;99.90;;;;;;5073898;28;20191;-42
2022/03/08 09:10:58;;;;;;;6.67;5.03;;;5.00;99.90;;;;;;5073838;28;20191;-40
2022/03/08 09:13:24;;;;;;;4.43;3.53;;;5.00;99.90;;;;;;5074957;28;20179;-41
2022/03/08 09:15:50;;;;;;;3.77;2.97;;;5.10;99.90;;;;;;5074609;28;20260;-41
2022/03/08 09:18:17;;;;;;;5.17;3.77;;;5.20;99.90;;;;;;5073986;28;20218;-41
2022/03/08 09:20:43;;;;;;;5.00;3.50;;;5.30;99.90;;;;;;5073743;28;20206;-40
2022/03/08 09:23:09;;;;;;;4.53;3.67;;;5.30;99.90;;;;;;5073572;28;20537;-42
2022/03/08 09:25:36;;;;;;;12.80;5.20;;;5.40;99.90;;;;;;5073583;28;20182;-41
2022/03/08 09:28:02;;;;;;;5.53;3.90;;;5.50;99.90;;;;;;5073685;28;20232;-40
2022/03/08 09:30:28;;;;;;;4.47;3.60;;;5.60;99.90;;;;;;5073542;28;20176;-40
2022/03/08 09:32:56;;;;;;;9.90;4.50;;;5.70;99.90;;;;;;5073373;28;20598;-42
2022/03/08 09:35:22;;;;;;;3.60;2.63;;;5.70;99.90;;;;;;5073371;28;20185;-41
2022/03/08 09:37:48;;;;;;;10.77;4.23;;;5.80;99.90;;;;;;5073321;28;20217;-43
2022/03/08 09:40:13;;;;;;;6.70;4.03;;;5.90;99.90;;;;;;5073647;28;20387;-43
2022/03/08 09:42:39;;;;;;;9.77;4.20;;;6.00;99.90;;;;;;5074094;28;20228;-41
2022/03/08 09:45:05;;;;;;;4.53;3.23;;;6.10;99.90;;;;;;5073734;28;20210;-41
2022/03/08 09:47:31;;;;;;;6.67;3.33;;;6.20;99.90;;;;;;5079311;28;20261;-43
2022/03/08 09:49:56;;;;;;;6.70;4.47;;;6.30;99.90;;;;;;5090544;28;20193;-41
2022/03/08 09:52:22;;;;;;;9.03;4.27;;;6.30;99.90;;;;;;5081374;28;20243;-41
2022/03/08 09:54:48;;;;;;;7.90;4.27;;;6.50;99.90;;;;;;5055323;28;20183;-41
2022/03/08 09:57:15;;;;;;;8.30;2.43;;;6.60;99.90;;;;;;5073143;28;20704;-42
2022/03/08 09:59:41;;;;;;;4.37;2.90;;;6.60;99.90;;;;;;5073225;28;20185;-43
2022/03/08 10:02:07;;;;;;;5.20;3.80;;;6.70;99.90;;;;;;5073062;28;20232;-41
2022/03/08 10:04:32;;;;;;;4.80;2.73;;;6.80;99.90;;;;;;5073441;28;20265;-44
2022/03/08 10:06:58;;;;;;;4.50;3.43;;;6.90;99.90;;;;;;5073145;28;20215;-40
2022/03/08 10:09:25;;;;;;;3.87;3.27;;;6.90;99.90;;;;;;5073444;28;20530;-42
2022/03/08 10:11:56;;;;;;;4.27;3.00;;;7.00;99.90;;;;;;5073384;28;20274;-41
2022/03/08 10:14:41;;;;;;;7.30;3.90;;;7.10;99.90;;;;;;5054997;28;20188;-42
2022/03/08 10:17:09;;;;;;;7.47;3.63;;;7.10;99.90;;;;;;5073300;28;20291;-43
2022/03/08 10:19:44;;;;;;;5.93;4.30;;;7.20;99.90;;;;;;5073170;28;20187;-41
2022/03/08 10:22:29;;;;;;;6.20;3.90;;;7.30;99.90;;;;;;5073534;28;20202;-43
2022/03/08 10:25:24;;;;;;;4.80;3.80;;;7.30;99.90;;;;;;5077183;28;20531;-41
2022/03/08 10:27:52;;;;;;;4.83;3.50;;;7.40;99.90;;;;;;5065191;28;20211;-40
2022/03/08 10:30:18;;;;;;;4.50;2.97;;;7.50;99.90;;;;;;5076648;28;20184;-43
2022/03/08 10:32:46;;;;;;;8.03;4.27;;;7.50;99.90;;;;;;5076959;28;20176;-42
2022/03/08 10:35:28;;;;;;;6.90;3.17;;;7.60;99.90;;;;;;5076826;28;20187;-41
2022/03/08 10:37:58;;;;;;;4.83;3.57;;;7.70;99.90;;;;;;5076486;28;20215;-40
2022/03/08 10:40:32;;;;;;;4.00;2.90;;;7.70;99.90;;;;;;5076677;28;20176;-42
2022/03/08 10:43:06;;;;;;;5.43;3.97;;;7.80;99.90;;;;;;5076667;28;20279;-42
2022/03/08 10:45:34;;;;;;;4.50;3.13;;;7.90;99.90;;;;;;5076794;28;20191;-41
2022/03/08 10:48:04;;;;;;;5.57;3.30;;;7.90;99.90;;;;;;5076232;28;20193;-43
2022/03/08 10:50:31;;;;;;;4.60;3.80;;;8.00;99.90;;;;;;5076288;28;20182;-42
2022/03/08 10:52:59;;;;;;;3.33;2.93;;;8.00;99.90;;;;;;5076153;28;20184;-42
2022/03/08 10:55:32;;;;;;;4.10;3.07;;;8.10;99.90;;;;;;5076138;28;20612;-42
2022/03/08 10:58:04;;;;;;;3.87;3.00;;;8.10;99.90;;;;;;5076638;28;20213;-41
2022/03/08 11:00:39;;;;;;;4.93;2.97;;;8.20;99.90;;;;;;5076485;28;20164;-40
2022/03/08 11:03:07;;;;;;;4.20;3.30;;;8.20;99.90;;;;;;5075998;28;20291;-43
2022/03/08 11:05:38;;;;;;;12.67;5.30;;;8.30;99.90;;;;;;5076004;28;20539;-41
2022/03/08 11:08:05;;;;;;;9.97;4.07;;;8.40;99.90;;;;;;5076307;28;20195;-41
2022/03/08 11:10:32;;;;;;;4.77;3.27;;;8.40;99.90;;;;;;5076027;28;20175;-41
2022/03/08 11:12:58;;;;;;;3.00;2.70;;;8.50;99.90;;;;;;5075968;28;20186;-43
2022/03/08 11:15:25;;;;;;;6.70;3.90;;;8.60;99.90;;;;;;5076141;28;20207;-40
2022/03/08 11:17:54;;;;;;;4.10;2.73;;;8.60;99.90;;;;;;5075780;28;20236;-44
2022/03/08 11:20:22;;;;;;;8.43;4.27;;;8.70;99.90;;;;;;5075743;28;20245;-42
2022/03/08 11:22:51;;;;;;;3.40;2.53;;;8.70;99.90;;;;;;5075575;28;20270;-42
2022/03/08 11:25:18;;;;;;;3.97;3.30;;;8.80;99.90;;;;;;5075779;28;20258;-42
2022/03/08 11:27:46;;;;;;;5.03;3.23;;;8.80;99.90;;;;;;5075683;28;20195;-41
2022/03/08 11:30:14;;;;;;;4.60;3.60;;;8.90;99.90;;;;;;5075607;28;20636;-43
2022/03/08 11:33:00;;;;;;;5.17;2.47;;;8.90;99.90;;;;;;5075960;28;20183;-44
2022/03/08 11:35:52;;;;;;;7.83;3.50;;;9.00;99.90;;;;;;5074558;28;20273;-43
2022/03/08 11:38:17;;;;;;;3.07;2.43;;;9.00;99.90;;;;;;5062300;28;20226;-40
2022/03/08 11:40:49;;;;;;;5.50;4.13;;;9.10;99.90;;;;;;5075917;28;20190;-44
2022/03/08 11:43:14;;;;;;;6.53;3.60;;;9.20;99.90;;;;;;5075561;28;20712;-42
2022/03/08 11:45:40;;;;;;;5.07;3.57;;;9.20;99.90;;;;;;5076492;28;20178;-42
2022/03/08 11:48:09;;;;;;;6.70;3.77;;;9.30;99.90;;;;;;5075709;28;20196;-44
2022/03/08 11:50:44;;;;;;;6.03;3.77;;;9.30;99.90;;;;;;5075099;28;20650;-42
2022/03/08 11:53:12;;;;;;;8.30;4.07;;;9.40;99.90;;;;;;5075556;28;20164;-43
2022/03/08 11:55:44;;;;;;;3.07;2.57;;;9.40;99.90;;;;;;5075390;28;20214;-42
2022/03/08 11:58:16;;;;;;;5.07;3.50;;;9.50;99.90;;;;;;5075321;28;20199;-43
2022/03/08 12:00:55;;;;;;;7.00;3.57;;;9.60;99.90;;;;;;5074942;28;20172;-44
2022/03/08 12:03:24;;;;;;;8.40;4.00;;;9.60;99.90;;;;;;5074980;28;20207;-44
2022/03/08 12:06:01;;;;;;;4.13;3.13;;;9.70;99.90;;;;;;5075201;28;20207;-41
2022/03/08 12:08:27;;;;;;;7.23;3.90;;;9.70;99.90;;;;;;5074833;28;20195;-42
2022/03/08 12:10:58;;;;;;;9.07;3.73;;;9.80;99.90;;;;;;5074916;28;20168;-39
2022/03/08 12:13:37;;;;;;;5.17;3.43;;;9.80;99.90;;;;;;5075068;28;20172;-42
2022/03/08 12:16:09;;;;;;;3.37;3.07;;;9.90;99.90;;;;;;5075042;28;20175;-40
2022/03/08 12:19:00;;;;;;;4.30;2.77;;;10.00;99.90;;;;;;5074720;28;20200;-42
2022/03/08 12:21:27;;;;;;;5.77;3.10;;;10.10;99.90;;;;;;5074510;28;20198;-43
2022/03/08 12:24:08;;;;;;;12.10;3.40;;;10.10;99.90;;;;;;5074806;28;20268;-43
2022/03/08 12:26:50;;;;;;;6.77;4.23;;;10.10;99.90;;;;;;5074369;28;20221;-43
2022/03/08 12:29:29;;;;;;;4.93;2.57;;;10.20;99.90;;;;;;5074721;28;20179;-42
2022/03/08 12:31:57;;;;;;;8.77;3.60;;;10.30;99.90;;;;;;5074603;28;20163;-43
2022/03/08 12:34:39;;;;;;;4.03;2.87;;;10.30;99.90;;;;;;5074539;28;20223;-42
2022/03/08 12:37:08;;;;;;;6.53;3.47;;;10.40;99.90;;;;;;5074166;28;20248;-43
2022/03/08 12:39:43;;;;;;;5.43;3.13;;;10.40;99.90;;;;;;5074231;28;20639;-43
2022/03/08 12:42:23;;;;;;;3.93;3.23;;;10.50;99.90;;;;;;5074101;28;20678;-43
2022/03/08 12:45:11;;;;;;;3.43;3.03;;;10.50;99.90;;;;;;5073956;28;20156;-42
2022/03/08 12:47:40;;;;;;;2.30;2.10;;;10.50;99.90;;;;;;5056114;28;20202;-42
2022/03/08 12:50:20;;;;;;;8.70;3.20;;;10.70;99.90;;;;;;5074112;28;20183;-40